createdAt,value
2022-12-19T00:01:37.312Z,-3.00
2022-12-19T00:03:40.186Z,-2.90
2022-12-19T00:05:43.118Z,-2.90
2022-12-19T00:07:48.818Z,-3.00
2022-12-19T00:09:51.518Z,-2.90
2022-12-19T00:11:54.705Z,-2.90
2022-12-19T00:13:59.590Z,-2.90
2022-12-19T00:16:03.147Z,-2.90
2022-12-19T00:18:06.226Z,-2.90
2022-12-19T00:20:10.383Z,-2.90
2022-12-19T00:22:14.491Z,-2.90
2022-12-19T00:24:21.290Z,-2.90
2022-12-19T00:26:26.269Z,-2.90
2022-12-19T00:28:29.022Z,-2.90
2022-12-19T00:30:33.496Z,-2.90
2022-12-19T00:32:37.775Z,-2.90
2022-12-19T00:34:40.689Z,-2.90
2022-12-19T00:36:43.839Z,-2.90
2022-12-19T00:38:46.979Z,-2.90
2022-12-19T00:40:49.710Z,-2.90
2022-12-19T00:42:53.798Z,-2.90
2022-12-19T00:44:58.011Z,-2.80
2022-12-19T00:47:02.099Z,-2.80
2022-12-19T00:49:05.729Z,-2.80
2022-12-19T00:51:12.633Z,-2.80
2022-12-19T00:53:15.522Z,-2.80
2022-12-19T00:55:19.077Z,-2.80
2022-12-19T00:57:22.820Z,-2.80
2022-12-19T00:59:26.396Z,-2.80
2022-12-19T01:01:33.140Z,-2.80
2022-12-19T01:03:37.659Z,-2.80
2022-12-19T01:05:42.077Z,-2.80
2022-12-19T01:07:45.120Z,-2.80
2022-12-19T01:09:48.617Z,-2.80
2022-12-19T01:12:11.221Z,-2.70
2022-12-19T01:14:22.316Z,-2.70
2022-12-19T01:16:25.728Z,-2.70
2022-12-19T01:18:28.504Z,-2.70
2022-12-19T01:20:32.642Z,-2.70
2022-12-19T01:22:35.366Z,-2.70
2022-12-19T01:24:38.753Z,-2.70
2022-12-19T01:26:41.557Z,-2.60
2022-12-19T01:28:44.259Z,-2.60
2022-12-19T01:30:47.321Z,-2.60
2022-12-19T01:32:50.423Z,-2.60
2022-12-19T01:34:53.364Z,-2.60
2022-12-19T01:36:57.536Z,-2.50
2022-12-19T01:39:00.567Z,-2.50
2022-12-19T01:41:03.967Z,-2.50
2022-12-19T01:43:07.520Z,-2.50
2022-12-19T01:45:32.037Z,-2.50
2022-12-19T01:47:46.351Z,-2.50
2022-12-19T01:49:51.451Z,-2.40
2022-12-19T01:51:56.701Z,-2.40
2022-12-19T01:54:05.619Z,-2.30
2022-12-19T01:56:11.018Z,-2.30
2022-12-19T01:58:15.497Z,-2.30
2022-12-19T02:00:18.311Z,-2.40
2022-12-19T02:02:29.670Z,-2.30
2022-12-19T02:04:33.428Z,-2.30
2022-12-19T02:06:36.342Z,-2.40
2022-12-19T02:08:40.088Z,-2.40
2022-12-19T02:10:44.136Z,-2.40
2022-12-19T02:12:47.067Z,-2.40
2022-12-19T02:14:50.311Z,-2.40
2022-12-19T02:17:00.115Z,-2.40
2022-12-19T02:19:18.080Z,-2.40
2022-12-19T02:21:30.239Z,-2.40
2022-12-19T02:23:57.745Z,-2.40
2022-12-19T02:26:18.896Z,-2.40
2022-12-19T02:28:45.557Z,-2.30
2022-12-19T02:31:01.790Z,-2.30
2022-12-19T02:33:17.206Z,-2.30
2022-12-19T02:35:33.777Z,-2.30
2022-12-19T02:37:41.377Z,-2.30
2022-12-19T02:39:48.631Z,-2.30
2022-12-19T02:41:56.539Z,-2.20
2022-12-19T02:44:00.577Z,-2.20
2022-12-19T02:46:06.912Z,-2.20
2022-12-19T02:48:13.036Z,-2.20
2022-12-19T02:50:18.793Z,-2.20
2022-12-19T02:52:44.683Z,-2.30
2022-12-19T02:54:48.700Z,-2.20
2022-12-19T02:56:56.673Z,-2.20
2022-12-19T02:59:15.888Z,-2.20
2022-12-19T03:01:34.336Z,-2.20
2022-12-19T03:03:46.794Z,-2.20
2022-12-19T03:05:58.595Z,-2.20
2022-12-19T03:08:09.212Z,-2.20
2022-12-19T03:10:19.920Z,-2.20
2022-12-19T03:12:27.848Z,-2.20
2022-12-19T03:14:32.358Z,-2.20
2022-12-19T03:16:37.934Z,-2.20
2022-12-19T03:18:41.705Z,-2.20
2022-12-19T03:20:49.201Z,-2.20
2022-12-19T03:22:52.253Z,-2.20
2022-12-19T03:24:55.018Z,-2.20
2022-12-19T03:27:02.750Z,-2.20
2022-12-19T03:29:11.649Z,-2.20
2022-12-19T03:31:17.064Z,-2.20
2022-12-19T03:33:23.313Z,-2.20
2022-12-19T03:35:30.331Z,-2.20
2022-12-19T03:37:38.366Z,-2.20
2022-12-19T03:39:41.944Z,-2.20
2022-12-19T03:42:03.512Z,-2.20
2022-12-19T03:44:08.494Z,-2.20
2022-12-19T03:46:17.171Z,-2.30
2022-12-19T03:48:28.285Z,-2.30
2022-12-19T03:50:36.530Z,-2.30
2022-12-19T03:52:46.929Z,-2.30
2022-12-19T03:54:55.779Z,-2.20
2022-12-19T03:57:02.903Z,-2.20
2022-12-19T03:59:10.520Z,-2.20
2022-12-19T04:01:13.600Z,-2.20
2022-12-19T04:03:18.537Z,-2.20
2022-12-19T04:05:24.580Z,-2.20
2022-12-19T04:07:28.061Z,-2.20
2022-12-19T04:09:32.728Z,-2.20
2022-12-19T04:11:41.075Z,-2.10
2022-12-19T04:13:48.696Z,-2.10
2022-12-19T04:15:55.206Z,-2.10
2022-12-19T04:17:59.981Z,-2.10
2022-12-19T04:20:06.388Z,-2.10
2022-12-19T04:22:15.762Z,-2.10
2022-12-19T04:24:24.232Z,-2.00
2022-12-19T04:26:29.067Z,-2.00
2022-12-19T04:28:35.579Z,-2.00
2022-12-19T04:30:39.259Z,-2.00
2022-12-19T04:32:46.476Z,-2.00
2022-12-19T04:34:49.311Z,-2.00
2022-12-19T04:36:52.408Z,-2.00
2022-12-19T04:38:56.533Z,-2.00
2022-12-19T04:40:59.290Z,-1.90
2022-12-19T04:43:01.999Z,-1.90
2022-12-19T04:45:05.396Z,-1.90
2022-12-19T04:47:08.272Z,-1.90
2022-12-19T04:49:11.011Z,-1.90
2022-12-19T04:51:14.017Z,-1.90
2022-12-19T04:53:16.834Z,-1.90
2022-12-19T04:55:20.993Z,-1.80
2022-12-19T04:57:23.877Z,-1.80
2022-12-19T04:59:26.707Z,-1.80
2022-12-19T05:01:29.788Z,-1.80
2022-12-19T05:03:33.096Z,-1.80
2022-12-19T05:05:35.930Z,-1.80
2022-12-19T05:07:38.746Z,-1.80
2022-12-19T05:09:41.673Z,-1.80
2022-12-19T05:11:45.728Z,-1.70
2022-12-19T05:13:49.777Z,-1.80
2022-12-19T05:15:57.606Z,-1.70
2022-12-19T05:18:00.353Z,-1.70
2022-12-19T05:20:03.470Z,-1.70
2022-12-19T05:22:06.351Z,-1.70
2022-12-19T05:24:09.565Z,-1.70
2022-12-19T05:26:12.930Z,-1.70
2022-12-19T05:28:17.634Z,-1.70
2022-12-19T05:30:23.356Z,-1.70
2022-12-19T05:32:26.074Z,-1.70
2022-12-19T05:34:29.025Z,-1.70
2022-12-19T05:36:32.725Z,-1.70
2022-12-19T05:38:36.477Z,-1.70
2022-12-19T05:40:39.240Z,-1.60
2022-12-19T05:42:42.121Z,-1.60
2022-12-19T05:44:46.177Z,-1.70
2022-12-19T05:46:49.380Z,-1.60
2022-12-19T05:48:52.372Z,-1.60
2022-12-19T05:50:55.452Z,-1.60
2022-12-19T05:52:58.208Z,-1.60
2022-12-19T05:55:01.026Z,-1.60
2022-12-19T05:57:04.147Z,-1.60
2022-12-19T05:59:06.941Z,-1.60
2022-12-19T06:01:14.070Z,-1.50
2022-12-19T06:03:16.849Z,-1.60
2022-12-19T06:05:19.731Z,-1.60
2022-12-19T06:07:22.443Z,-1.50
2022-12-19T06:09:25.427Z,-1.60
2022-12-19T06:11:28.597Z,-1.50
2022-12-19T06:13:31.509Z,-1.50
2022-12-19T06:15:34.174Z,-1.50
2022-12-19T06:17:38.232Z,-1.50
2022-12-19T06:19:40.907Z,-1.50
2022-12-19T06:21:48.197Z,-1.50
2022-12-19T06:23:52.081Z,-1.50
2022-12-19T06:25:57.440Z,-1.50
2022-12-19T06:28:00.484Z,-1.40
2022-12-19T06:30:03.792Z,-1.50
2022-12-19T06:32:07.086Z,-1.50
2022-12-19T06:34:27.111Z,-1.40
2022-12-19T06:36:36.035Z,-1.40
2022-12-19T06:38:39.263Z,-1.40
2022-12-19T06:41:01.195Z,-1.40
2022-12-19T06:43:03.948Z,-1.40
2022-12-19T06:45:07.864Z,-1.40
2022-12-19T06:47:13.475Z,-1.40
2022-12-19T06:49:18.991Z,-1.40
2022-12-19T06:51:22.450Z,-1.40
2022-12-19T06:53:25.603Z,-1.30
2022-12-19T06:55:28.825Z,-1.40
2022-12-19T06:57:34.276Z,-1.30
2022-12-19T06:59:37.514Z,-1.30
2022-12-19T07:01:54.207Z,-1.30
2022-12-19T07:03:57.351Z,-1.30
2022-12-19T07:06:14.337Z,-1.30
2022-12-19T07:08:20.491Z,-1.30
2022-12-19T07:10:23.520Z,-1.30
2022-12-19T07:12:37.196Z,-1.30
2022-12-19T07:14:50.210Z,-1.20
2022-12-19T07:16:58.976Z,-1.20
2022-12-19T07:19:02.303Z,-1.20
2022-12-19T07:21:09.319Z,-1.20
2022-12-19T07:23:15.789Z,-1.20
2022-12-19T07:25:20.977Z,-1.20
2022-12-19T07:27:24.001Z,-1.20
2022-12-19T07:29:26.965Z,-1.20
2022-12-19T07:31:29.960Z,-1.20
2022-12-19T07:33:36.217Z,-1.10
2022-12-19T07:35:39.887Z,-1.10
2022-12-19T07:37:44.700Z,-1.10
2022-12-19T07:39:47.800Z,-1.10
2022-12-19T07:41:50.925Z,-1.10
2022-12-19T07:43:56.816Z,-1.10
2022-12-19T07:46:00.057Z,-1.10
2022-12-19T07:48:06.694Z,-1.10
2022-12-19T07:50:13.025Z,-1.00
2022-12-19T07:52:16.495Z,-1.10
2022-12-19T07:54:21.060Z,-1.00
2022-12-19T07:56:24.865Z,-1.00
2022-12-19T07:58:28.764Z,-1.00
2022-12-19T08:00:31.641Z,-1.00
2022-12-19T08:02:34.552Z,-1.00
2022-12-19T08:04:37.875Z,-0.90
2022-12-19T08:06:41.625Z,-0.90
2022-12-19T08:08:44.743Z,-0.90
2022-12-19T08:10:49.135Z,-0.90
2022-12-19T08:12:52.165Z,-0.80
2022-12-19T08:14:57.316Z,-0.80
2022-12-19T08:19:27.425Z,-0.80
2022-12-19T08:21:31.179Z,-0.80
2022-12-19T08:23:34.548Z,-0.80
2022-12-19T08:25:39.467Z,-0.80
2022-12-19T08:27:44.102Z,-0.80
2022-12-19T08:29:47.439Z,-0.70
2022-12-19T08:31:50.995Z,-0.70
2022-12-19T08:33:55.429Z,-0.70
2022-12-19T08:35:58.652Z,-0.70
2022-12-19T08:38:01.806Z,-0.70
2022-12-19T08:40:05.517Z,-0.60
2022-12-19T08:42:08.541Z,-0.60
2022-12-19T08:44:13.406Z,-0.60
2022-12-19T08:46:17.642Z,-0.50
2022-12-19T08:48:20.610Z,-0.50
2022-12-19T08:50:23.551Z,-0.50
2022-12-19T08:52:26.737Z,-0.50
2022-12-19T08:54:29.606Z,-0.40
2022-12-19T08:56:32.506Z,-0.40
2022-12-19T08:58:35.671Z,-0.40
2022-12-19T09:00:40.085Z,-0.40
2022-12-19T09:02:43.072Z,-0.30
2022-12-19T09:05:57.963Z,-0.30
2022-12-19T09:07:09.603Z,-0.30
2022-12-19T09:09:12.567Z,-0.30
2022-12-19T09:11:18.482Z,-0.30
2022-12-19T09:13:21.696Z,-0.30
2022-12-19T09:15:24.591Z,-0.20
2022-12-19T09:17:29.402Z,-0.20
2022-12-19T09:19:33.126Z,-0.20
2022-12-19T09:21:36.065Z,-0.20
2022-12-19T09:23:38.937Z,-0.20
2022-12-19T09:25:41.809Z,-0.10
2022-12-19T09:28:18.050Z,-0.10
2022-12-19T09:30:08.892Z,-0.10
2022-12-19T09:32:11.704Z,0.00
2022-12-19T09:34:15.826Z,0.00
2022-12-19T09:36:20.502Z,0.10
2022-12-19T09:38:25.348Z,0.10
2022-12-19T09:40:31.470Z,0.10
2022-12-19T09:42:56.268Z,0.20
2022-12-19T09:45:31.858Z,0.20
2022-12-19T09:47:36.705Z,0.20
2022-12-19T09:49:44.572Z,0.20
2022-12-19T09:51:54.893Z,0.20
2022-12-19T09:54:06.912Z,0.20
2022-12-19T09:56:17.535Z,0.30
2022-12-19T09:58:31.989Z,0.20
2022-12-19T10:00:40.157Z,0.30
2022-12-19T10:02:51.260Z,0.30
2022-12-19T10:05:45.516Z,0.30
2022-12-19T10:07:47.100Z,0.30
2022-12-19T10:12:46.088Z,0.30
2022-12-19T10:12:51.421Z,0.30
2022-12-19T10:15:05.210Z,0.30
2022-12-19T10:17:26.042Z,0.30
2022-12-19T10:19:40.476Z,0.40
2022-12-19T10:25:00.558Z,0.40
2022-12-19T10:27:19.044Z,0.40
2022-12-19T10:29:49.094Z,0.40
2022-12-19T10:31:59.693Z,0.40
2022-12-19T10:34:13.306Z,0.40
2022-12-19T10:36:16.574Z,0.40
2022-12-19T10:38:29.982Z,0.40
2022-12-19T10:40:35.896Z,0.40
2022-12-19T10:42:49.991Z,0.50
2022-12-19T10:44:54.807Z,0.50
2022-12-19T10:46:57.690Z,0.50
2022-12-19T10:49:01.104Z,0.50
2022-12-19T10:51:06.179Z,0.40
2022-12-19T10:53:12.127Z,0.40
2022-12-19T10:55:42.569Z,0.40
2022-12-19T10:57:45.666Z,0.50
2022-12-19T10:59:56.503Z,0.50
2022-12-19T11:02:03.144Z,0.50
2022-12-19T11:04:28.694Z,0.50
2022-12-19T11:06:46.260Z,0.50
2022-12-19T11:08:49.148Z,0.50
2022-12-19T11:13:12.960Z,0.50
2022-12-19T11:18:15.659Z,0.50
2022-12-19T11:21:35.499Z,0.50
2022-12-19T11:27:03.958Z,0.60
2022-12-19T11:29:19.131Z,0.50
2022-12-19T11:29:39.847Z,0.60
2022-12-19T11:30:35.805Z,0.60
2022-12-19T11:30:43.364Z,0.60
2022-12-19T11:33:12.965Z,0.60
2022-12-19T11:35:20.663Z,0.60
2022-12-19T11:37:37.587Z,0.60
2022-12-19T11:39:45.778Z,0.70
2022-12-19T11:41:55.974Z,0.70
2022-12-19T11:44:06.401Z,0.70
2022-12-19T11:46:24.948Z,0.70
2022-12-19T11:48:37.708Z,0.70
2022-12-19T11:50:46.148Z,0.70
2022-12-19T11:53:04.129Z,0.70
2022-12-19T11:55:20.862Z,0.70
2022-12-19T11:57:24.146Z,0.70
2022-12-19T11:59:32.581Z,0.70
2022-12-19T12:01:49.585Z,0.70
2022-12-19T12:04:13.712Z,0.70
2022-12-19T12:06:18.462Z,0.70
2022-12-19T12:10:36.051Z,0.70
2022-12-19T12:17:46.233Z,0.70
2022-12-19T12:23:00.268Z,0.80
2022-12-19T12:28:47.899Z,0.80
2022-12-19T12:31:05.267Z,0.90
2022-12-19T12:31:14.803Z,0.80
2022-12-19T12:31:50.788Z,0.90
2022-12-19T12:31:57.752Z,0.90
2022-12-19T12:35:19.930Z,0.90
2022-12-19T12:35:40.782Z,0.90
2022-12-19T12:35:46.217Z,0.90
2022-12-19T12:39:50.654Z,0.90
2022-12-19T12:42:06.164Z,0.80
2022-12-19T12:44:14.133Z,0.80
2022-12-19T12:46:24.590Z,0.80
2022-12-19T12:48:37.340Z,0.80
2022-12-19T12:50:43.147Z,0.80
2022-12-19T12:52:49.115Z,0.80
2022-12-19T12:54:52.594Z,0.80
2022-12-19T12:56:56.318Z,0.80
2022-12-19T12:59:19.299Z,0.80
2022-12-19T13:01:39.439Z,0.80
2022-12-19T13:03:53.632Z,0.80
2022-12-19T13:06:07.015Z,0.90
2022-12-19T13:08:36.845Z,0.90
2022-12-19T13:10:53.399Z,0.90
2022-12-19T13:13:01.032Z,0.90
2022-12-19T13:15:40.853Z,0.90
2022-12-19T13:18:37.715Z,0.90
2022-12-19T13:20:46.677Z,1.00
2022-12-19T13:23:05.744Z,1.00
2022-12-19T13:25:45.579Z,1.00
2022-12-19T13:27:50.446Z,1.00
2022-12-19T13:29:56.955Z,1.00
2022-12-19T13:32:11.787Z,1.10
2022-12-19T13:34:19.378Z,1.10
2022-12-19T13:39:55.760Z,1.10
2022-12-19T13:39:57.597Z,1.10
2022-12-19T13:42:39.927Z,1.20
2022-12-19T13:44:43.839Z,1.20
2022-12-19T13:46:49.249Z,1.20
2022-12-19T13:48:57.882Z,1.20
2022-12-19T13:51:05.566Z,1.20
2022-12-19T13:53:16.562Z,1.30
2022-12-19T13:55:20.982Z,1.20
2022-12-19T13:57:26.143Z,1.30
2022-12-19T13:59:35.619Z,1.20
2022-12-19T14:01:41.186Z,1.20
2022-12-19T14:03:49.705Z,1.20
2022-12-19T14:06:18.689Z,1.20
2022-12-19T14:08:26.102Z,1.20
2022-12-19T14:11:32.109Z,1.20
2022-12-19T14:13:52.907Z,1.20
2022-12-19T14:15:45.235Z,1.20
2022-12-19T14:17:55.804Z,1.20
2022-12-19T14:20:33.218Z,1.20
2022-12-19T14:22:26.606Z,1.20
2022-12-19T14:24:32.070Z,1.20
2022-12-19T14:28:21.949Z,1.20
2022-12-19T14:29:03.992Z,1.20
2022-12-19T14:31:12.719Z,1.20
2022-12-19T14:33:45.481Z,1.20
2022-12-19T14:36:06.614Z,1.20
2022-12-19T14:39:20.543Z,1.20
2022-12-19T14:41:09.562Z,1.20
2022-12-19T14:44:00.376Z,1.20
2022-12-19T14:54:00.630Z,1.20
2022-12-19T14:54:00.768Z,1.20
2022-12-19T14:54:31.209Z,1.20
2022-12-19T14:54:44.364Z,1.20
2022-12-19T14:58:55.530Z,1.20
2022-12-19T15:01:09.783Z,1.20
2022-12-19T15:03:25.833Z,1.20
2022-12-19T15:05:30.657Z,1.20
2022-12-19T15:07:36.704Z,1.20
2022-12-19T15:10:58.552Z,1.10
2022-12-19T15:14:50.492Z,1.10
2022-12-19T15:15:20.230Z,1.10
2022-12-19T15:17:28.597Z,1.10
2022-12-19T15:19:31.675Z,1.10
2022-12-19T15:21:39.065Z,1.00
2022-12-19T15:23:44.815Z,1.00
2022-12-19T15:26:05.133Z,1.00
2022-12-19T15:28:22.542Z,1.00
2022-12-19T15:30:27.991Z,1.00
2022-12-19T15:32:30.818Z,1.00
2022-12-19T15:34:41.597Z,1.00
2022-12-19T15:36:47.598Z,1.00
2022-12-19T15:38:50.476Z,0.90
2022-12-19T15:40:53.736Z,0.90
2022-12-19T15:42:58.816Z,0.90
2022-12-19T15:45:05.891Z,0.90
2022-12-19T15:47:18.019Z,0.90
2022-12-19T15:49:22.537Z,0.90
2022-12-19T15:51:25.822Z,0.90
2022-12-19T15:53:40.248Z,0.80
2022-12-19T15:55:43.996Z,0.80
2022-12-19T15:57:50.021Z,0.80
2022-12-19T15:59:53.404Z,0.80
2022-12-19T16:02:00.023Z,0.80
2022-12-19T16:04:04.587Z,0.80
2022-12-19T16:06:14.692Z,0.80
2022-12-19T16:08:20.444Z,0.70
2022-12-19T16:10:24.431Z,0.70
2022-12-19T16:12:35.718Z,0.70
2022-12-19T16:14:41.740Z,0.70
2022-12-19T16:16:46.191Z,0.70
2022-12-19T16:18:50.547Z,0.70
2022-12-19T16:20:53.490Z,0.70
2022-12-19T16:22:56.413Z,0.70
2022-12-19T16:24:59.907Z,0.60
2022-12-19T16:27:02.818Z,0.70
2022-12-19T16:29:06.800Z,0.70
2022-12-19T16:31:15.958Z,0.70
2022-12-19T16:33:21.391Z,0.70
2022-12-19T16:36:03.024Z,0.70
2022-12-19T16:37:50.956Z,0.80
2022-12-19T16:39:53.719Z,0.80
2022-12-19T16:41:56.961Z,0.80
2022-12-19T16:43:59.860Z,0.80
2022-12-19T16:46:05.401Z,0.80
2022-12-19T16:48:19.248Z,0.80
2022-12-19T16:50:27.221Z,0.80
2022-12-19T16:52:30.453Z,0.80
2022-12-19T16:54:33.635Z,0.80
2022-12-19T16:56:42.443Z,0.70
2022-12-19T16:58:49.034Z,0.70
2022-12-19T17:00:59.643Z,0.70
2022-12-19T17:03:07.827Z,0.70
2022-12-19T17:05:24.069Z,0.70
2022-12-19T17:07:29.942Z,0.70
2022-12-19T17:09:32.695Z,0.70
2022-12-19T17:11:35.722Z,0.70
2022-12-19T17:13:38.715Z,0.70
2022-12-19T17:15:42.340Z,0.60
2022-12-19T17:17:45.574Z,0.60
2022-12-19T17:19:48.572Z,0.60
2022-12-19T17:21:52.311Z,0.60
2022-12-19T17:23:56.748Z,0.60
2022-12-19T17:26:00.938Z,0.60
2022-12-19T17:28:04.182Z,0.60
2022-12-19T17:30:08.956Z,0.60
2022-12-19T17:32:19.829Z,0.60
2022-12-19T17:34:29.960Z,0.60
2022-12-19T17:36:37.572Z,0.60
2022-12-19T17:38:41.429Z,0.60
2022-12-19T17:40:47.092Z,0.60
2022-12-19T17:42:50.780Z,0.60
2022-12-19T17:44:53.567Z,0.70
2022-12-19T17:46:56.883Z,0.70
2022-12-19T17:48:59.731Z,0.80
2022-12-19T17:51:02.703Z,0.80
2022-12-19T17:53:16.226Z,0.80
2022-12-19T17:55:21.763Z,0.80
2022-12-19T17:57:29.118Z,0.80
2022-12-19T17:59:32.095Z,0.80
2022-12-19T18:01:36.698Z,0.80
2022-12-19T18:03:40.179Z,0.80
2022-12-19T18:05:43.332Z,0.80
2022-12-19T18:07:46.316Z,0.90
2022-12-19T18:09:49.565Z,0.90
2022-12-19T18:11:53.420Z,0.90
2022-12-19T18:13:57.745Z,0.90
2022-12-19T18:16:02.120Z,0.90
2022-12-19T18:18:05.501Z,0.90
2022-12-19T18:20:19.838Z,0.90
2022-12-19T18:22:22.736Z,0.90
2022-12-19T18:24:26.190Z,0.80
2022-12-19T18:26:29.358Z,0.80
2022-12-19T18:28:32.684Z,0.80
2022-12-19T18:30:37.874Z,0.70
2022-12-19T18:32:40.938Z,0.70
2022-12-19T18:34:45.247Z,0.70
2022-12-19T18:36:48.088Z,0.80
2022-12-19T18:38:51.514Z,0.80
2022-12-19T18:40:54.444Z,0.80
2022-12-19T18:43:00.065Z,0.80
2022-12-19T18:45:03.097Z,0.80
2022-12-19T18:47:18.334Z,0.90
2022-12-19T18:49:22.757Z,0.80
2022-12-19T18:51:26.545Z,0.80
2022-12-19T18:53:35.847Z,0.80
2022-12-19T18:55:39.556Z,0.80
2022-12-19T18:57:42.876Z,0.70
2022-12-19T18:59:50.269Z,0.70
2022-12-19T19:01:55.499Z,0.70
2022-12-19T19:04:03.200Z,0.60
2022-12-19T19:06:09.770Z,0.60
2022-12-19T19:08:19.403Z,0.60
2022-12-19T19:10:24.547Z,0.60
2022-12-19T19:12:27.625Z,0.60
2022-12-19T19:14:30.825Z,0.60
2022-12-19T19:16:33.835Z,0.60
2022-12-19T19:18:39.738Z,0.60
2022-12-19T19:20:45.887Z,0.60
2022-12-19T19:22:48.919Z,0.60
2022-12-19T19:24:52.217Z,0.70
2022-12-19T19:26:55.511Z,0.70
2022-12-19T19:28:58.331Z,0.70
2022-12-19T19:31:02.121Z,0.70
2022-12-19T19:33:11.543Z,0.70
2022-12-19T19:35:17.048Z,0.80
2022-12-19T19:37:21.251Z,0.80
2022-12-19T19:39:27.411Z,0.80
2022-12-19T19:41:30.645Z,0.80
2022-12-19T19:43:35.529Z,0.80
2022-12-19T19:45:43.165Z,0.80
2022-12-19T19:47:47.739Z,0.80
2022-12-19T19:49:50.589Z,0.80
2022-12-19T19:51:58.669Z,0.70
2022-12-19T19:54:06.769Z,0.80
2022-12-19T19:56:12.116Z,0.80
2022-12-19T19:58:14.994Z,0.70
2022-12-19T20:00:19.924Z,0.70
2022-12-19T20:02:22.829Z,0.70
2022-12-19T20:04:26.541Z,0.80
2022-12-19T20:06:29.389Z,0.80
2022-12-19T20:08:39.148Z,0.80
2022-12-19T20:10:44.518Z,0.80
2022-12-19T20:12:47.555Z,0.80
2022-12-19T20:14:50.500Z,0.90
2022-12-19T20:16:53.624Z,0.80
2022-12-19T20:18:56.535Z,0.90
2022-12-19T20:20:59.388Z,0.90
2022-12-19T20:23:04.979Z,0.90
2022-12-19T20:25:08.087Z,0.90
2022-12-19T20:27:12.719Z,1.00
2022-12-19T20:29:15.717Z,1.00
2022-12-19T20:31:19.570Z,1.00
2022-12-19T20:33:23.219Z,1.00
2022-12-19T20:35:26.194Z,1.00
2022-12-19T20:37:29.182Z,1.00
2022-12-19T20:39:33.789Z,1.10
2022-12-19T20:41:37.097Z,1.10
2022-12-19T20:43:41.302Z,1.10
2022-12-19T20:45:45.191Z,1.20
2022-12-19T20:47:47.952Z,1.20
2022-12-19T20:49:50.833Z,1.20
2022-12-19T20:51:53.967Z,1.30
2022-12-19T20:53:56.863Z,1.30
2022-12-19T20:56:02.977Z,1.30
2022-12-19T20:58:05.700Z,1.40
2022-12-19T21:00:11.409Z,1.30
2022-12-19T21:02:14.408Z,1.40
2022-12-19T21:04:17.735Z,1.40
2022-12-19T21:06:22.192Z,1.40
2022-12-19T21:08:27.133Z,1.50
2022-12-19T21:10:30.849Z,1.50
2022-12-19T21:12:33.778Z,1.60
2022-12-19T21:14:36.759Z,1.50
2022-12-19T21:16:41.358Z,1.60
2022-12-19T21:18:46.028Z,1.60
2022-12-19T21:20:50.034Z,1.60
2022-12-19T21:22:55.923Z,1.60
2022-12-19T21:24:58.856Z,1.60
2022-12-19T21:27:02.111Z,1.60
2022-12-19T21:29:05.276Z,1.60
2022-12-19T21:31:13.541Z,1.60
2022-12-19T21:33:18.145Z,1.60
2022-12-19T21:35:21.258Z,1.60
2022-12-19T21:37:24.455Z,1.60
2022-12-19T21:39:27.446Z,1.60
2022-12-19T21:41:30.598Z,1.60
2022-12-19T21:43:34.466Z,1.60
2022-12-19T21:45:37.626Z,1.60
2022-12-19T21:47:42.130Z,1.70
2022-12-19T21:49:46.455Z,1.70
2022-12-19T21:51:49.252Z,1.70
2022-12-19T21:53:54.746Z,1.80
2022-12-19T21:56:04.061Z,1.80
2022-12-19T21:58:07.192Z,1.80
2022-12-19T22:00:13.294Z,1.80
2022-12-19T22:02:16.102Z,1.80
2022-12-19T22:04:21.506Z,1.80
2022-12-19T22:06:28.599Z,1.80
2022-12-19T22:08:31.909Z,1.80
2022-12-19T22:10:34.752Z,1.80
2022-12-19T22:12:37.689Z,1.80
2022-12-19T22:14:40.485Z,1.80
2022-12-19T22:16:43.916Z,1.80
2022-12-19T22:18:47.126Z,1.80
2022-12-19T22:20:49.909Z,1.90
2022-12-19T22:22:54.070Z,1.90
2022-12-19T22:24:56.819Z,1.90
2022-12-19T22:26:59.542Z,1.90
2022-12-19T22:29:02.274Z,1.90
2022-12-19T22:31:14.310Z,1.90
2022-12-19T22:33:17.047Z,1.90
2022-12-19T22:35:19.935Z,1.90
2022-12-19T22:37:22.723Z,1.90
2022-12-19T22:39:26.764Z,1.90
2022-12-19T22:41:30.165Z,1.90
2022-12-19T22:43:33.489Z,1.90
2022-12-19T22:45:36.464Z,2.00
2022-12-19T22:47:42.501Z,2.00
2022-12-19T22:49:45.508Z,2.00
2022-12-19T22:51:48.272Z,2.10
2022-12-19T22:53:51.045Z,2.20
2022-12-19T22:55:55.636Z,2.30
2022-12-19T22:57:58.335Z,2.30
2022-12-19T23:00:01.102Z,2.30
2022-12-19T23:02:05.006Z,2.30
2022-12-19T23:04:09.526Z,2.40
2022-12-19T23:06:13.098Z,2.40
2022-12-19T23:08:15.816Z,2.40
2022-12-19T23:10:18.671Z,2.40
2022-12-19T23:12:22.718Z,2.40
2022-12-19T23:14:25.767Z,2.40
2022-12-19T23:16:28.867Z,2.30
2022-12-19T23:18:31.868Z,2.30
2022-12-19T23:20:34.582Z,2.30
2022-12-19T23:22:37.328Z,2.20
2022-12-19T23:24:40.252Z,2.20
2022-12-19T23:26:43.600Z,2.20
2022-12-19T23:28:52.241Z,2.10
2022-12-19T23:31:03.384Z,2.10
2022-12-19T23:33:06.105Z,2.00
2022-12-19T23:35:09.597Z,2.00
2022-12-19T23:37:12.891Z,1.90
2022-12-19T23:39:15.945Z,1.90
2022-12-19T23:41:18.661Z,1.90
2022-12-19T23:43:21.559Z,1.90
2022-12-19T23:45:25.784Z,1.90
2022-12-19T23:47:29.467Z,1.90
2022-12-19T23:49:33.490Z,1.90
2022-12-19T23:51:36.312Z,1.90
2022-12-19T23:53:39.246Z,1.90
2022-12-19T23:55:41.960Z,1.90
2022-12-19T23:57:44.996Z,1.90
2022-12-19T23:59:47.679Z,1.90
